sensor_id;sensor_type;location;lat;lon;timestamp;pressure;altitude;pressure_sealevel;temperature
41593;BMP180;28026;48.562;14.440;2022-12-07T00:02:24;93380.00;;;9.10
41593;BMP180;28026;48.562;14.440;2022-12-07T00:04:54;93383.00;;;9.00
41593;BMP180;28026;48.562;14.440;2022-12-07T00:07:25;93387.00;;;9.00
41593;BMP180;28026;48.562;14.440;2022-12-07T00:09:56;93384.00;;;8.90
41593;BMP180;28026;48.562;14.440;2022-12-07T00:12:27;93380.00;;;8.90
41593;BMP180;28026;48.562;14.440;2022-12-07T00:14:58;93380.00;;;8.90
41593;BMP180;28026;48.562;14.440;2022-12-07T00:17:29;93377.00;;;8.90
41593;BMP180;28026;48.562;14.440;2022-12-07T00:20:00;93375.00;;;8.80
41593;BMP180;28026;48.562;14.440;2022-12-07T00:22:31;93372.00;;;8.80
41593;BMP180;28026;48.562;14.440;2022-12-07T00:25:02;93370.00;;;8.80
41593;BMP180;28026;48.562;14.440;2022-12-07T00:27:33;93374.00;;;8.80
41593;BMP180;28026;48.562;14.440;2022-12-07T00:30:05;93375.00;;;8.80
41593;BMP180;28026;48.562;14.440;2022-12-07T00:32:36;93371.00;;;8.90
41593;BMP180;28026;48.562;14.440;2022-12-07T00:35:07;93362.00;;;8.80
41593;BMP180;28026;48.562;14.440;2022-12-07T00:37:38;93363.00;;;8.80
41593;BMP180;28026;48.562;14.440;2022-12-07T00:40:10;93368.00;;;8.70
41593;BMP180;28026;48.562;14.440;2022-12-07T00:42:41;93368.00;;;8.70
41593;BMP180;28026;48.562;14.440;2022-12-07T00:45:12;93369.00;;;8.70
41593;BMP180;28026;48.562;14.440;2022-12-07T00:47:43;93373.00;;;8.70
41593;BMP180;28026;48.562;14.440;2022-12-07T00:50:13;93369.00;;;8.60
41593;BMP180;28026;48.562;14.440;2022-12-07T00:52:44;93375.00;;;8.60
41593;BMP180;28026;48.562;14.440;2022-12-07T00:55:15;93373.00;;;8.60
41593;BMP180;28026;48.562;14.440;2022-12-07T00:57:46;93370.00;;;8.50
41593;BMP180;28026;48.562;14.440;2022-12-07T01:00:17;93373.00;;;8.50
41593;BMP180;28026;48.562;14.440;2022-12-07T01:02:48;93380.00;;;8.60
41593;BMP180;28026;48.562;14.440;2022-12-07T01:05:20;93366.00;;;8.50
41593;BMP180;28026;48.562;14.440;2022-12-07T01:07:50;93372.00;;;8.50
41593;BMP180;28026;48.562;14.440;2022-12-07T01:10:22;93376.00;;;8.50
41593;BMP180;28026;48.562;14.440;2022-12-07T01:12:53;93370.00;;;8.60
41593;BMP180;28026;48.562;14.440;2022-12-07T01:15:25;93378.00;;;8.50
41593;BMP180;28026;48.562;14.440;2022-12-07T01:17:56;93384.00;;;8.50
41593;BMP180;28026;48.562;14.440;2022-12-07T01:20:27;93364.00;;;8.40
41593;BMP180;28026;48.562;14.440;2022-12-07T01:22:58;93380.00;;;8.40
41593;BMP180;28026;48.562;14.440;2022-12-07T01:25:29;93372.00;;;8.30
41593;BMP180;28026;48.562;14.440;2022-12-07T01:28:00;93377.00;;;8.30
41593;BMP180;28026;48.562;14.440;2022-12-07T01:30:31;93378.00;;;8.30
41593;BMP180;28026;48.562;14.440;2022-12-07T01:33:02;93381.00;;;8.30
41593;BMP180;28026;48.562;14.440;2022-12-07T01:35:34;93366.00;;;8.30
41593;BMP180;28026;48.562;14.440;2022-12-07T01:38:04;93378.00;;;8.30
41593;BMP180;28026;48.562;14.440;2022-12-07T01:40:35;93364.00;;;8.30
41593;BMP180;28026;48.562;14.440;2022-12-07T01:43:18;93366.00;;;8.30
41593;BMP180;28026;48.562;14.440;2022-12-07T01:45:50;93361.00;;;8.30
41593;BMP180;28026;48.562;14.440;2022-12-07T01:48:32;93363.00;;;8.30
41593;BMP180;28026;48.562;14.440;2022-12-07T01:51:11;93359.00;;;8.30
41593;BMP180;28026;48.562;14.440;2022-12-07T01:53:45;93355.00;;;8.30
41593;BMP180;28026;48.562;14.440;2022-12-07T01:56:23;93344.00;;;8.30
41593;BMP180;28026;48.562;14.440;2022-12-07T01:58:58;93350.00;;;8.40
41593;BMP180;28026;48.562;14.440;2022-12-07T02:01:31;93345.00;;;8.40
41593;BMP180;28026;48.562;14.440;2022-12-07T02:04:02;93340.00;;;8.40
41593;BMP180;28026;48.562;14.440;2022-12-07T02:06:36;93346.00;;;8.40
41593;BMP180;28026;48.562;14.440;2022-12-07T02:09:07;93344.00;;;8.40
41593;BMP180;28026;48.562;14.440;2022-12-07T02:11:39;93346.00;;;8.40
41593;BMP180;28026;48.562;14.440;2022-12-07T02:14:11;93344.00;;;8.40
41593;BMP180;28026;48.562;14.440;2022-12-07T02:17:25;93325.00;;;8.40
41593;BMP180;28026;48.562;14.440;2022-12-07T02:20:33;93341.00;;;8.40
41593;BMP180;28026;48.562;14.440;2022-12-07T02:23:40;93337.00;;;8.40
41593;BMP180;28026;48.562;14.440;2022-12-07T02:30:00;93336.00;;;8.30
41593;BMP180;28026;48.562;14.440;2022-12-07T02:36:03;93343.00;;;8.30
41593;BMP180;28026;48.562;14.440;2022-12-07T02:42:17;93326.00;;;8.20
41593;BMP180;28026;48.562;14.440;2022-12-07T02:44:54;93335.00;;;8.20
41593;BMP180;28026;48.562;14.440;2022-12-07T02:47:28;93337.00;;;8.10
41593;BMP180;28026;48.562;14.440;2022-12-07T02:50:06;93337.00;;;8.20
41593;BMP180;28026;48.562;14.440;2022-12-07T02:52:38;93324.00;;;8.10
41593;BMP180;28026;48.562;14.440;2022-12-07T02:55:09;93343.00;;;8.20
41593;BMP180;28026;48.562;14.440;2022-12-07T02:58:03;93337.00;;;8.20
41593;BMP180;28026;48.562;14.440;2022-12-07T03:07:25;93324.00;;;8.10
41593;BMP180;28026;48.562;14.440;2022-12-07T03:13:47;93324.00;;;8.10
41593;BMP180;28026;48.562;14.440;2022-12-07T03:16:27;93327.00;;;8.10
41593;BMP180;28026;48.562;14.440;2022-12-07T03:19:16;93329.00;;;8.10
41593;BMP180;28026;48.562;14.440;2022-12-07T03:21:57;93324.00;;;8.10
41593;BMP180;28026;48.562;14.440;2022-12-07T03:24:49;93329.00;;;8.10
41593;BMP180;28026;48.562;14.440;2022-12-07T03:27:55;93327.00;;;8.20
41593;BMP180;28026;48.562;14.440;2022-12-07T03:30:45;93330.00;;;8.10
41593;BMP180;28026;48.562;14.440;2022-12-07T03:34:11;93340.00;;;8.10
41593;BMP180;28026;48.562;14.440;2022-12-07T03:37:02;93328.00;;;8.10
41593;BMP180;28026;48.562;14.440;2022-12-07T03:42:41;93328.00;;;8.00
41593;BMP180;28026;48.562;14.440;2022-12-07T03:45:14;93325.00;;;8.00
41593;BMP180;28026;48.562;14.440;2022-12-07T03:54:31;93316.00;;;8.00
41593;BMP180;28026;48.562;14.440;2022-12-07T03:57:10;93322.00;;;8.00
41593;BMP180;28026;48.562;14.440;2022-12-07T03:59:43;93321.00;;;8.00
41593;BMP180;28026;48.562;14.440;2022-12-07T04:02:15;93330.00;;;8.00
41593;BMP180;28026;48.562;14.440;2022-12-07T04:04:46;93332.00;;;8.00
41593;BMP180;28026;48.562;14.440;2022-12-07T04:07:18;93328.00;;;8.10
41593;BMP180;28026;48.562;14.440;2022-12-07T04:09:49;93337.00;;;8.10
41593;BMP180;28026;48.562;14.440;2022-12-07T04:12:21;93318.00;;;8.10
41593;BMP180;28026;48.562;14.440;2022-12-07T04:14:52;93327.00;;;8.10
41593;BMP180;28026;48.562;14.440;2022-12-07T04:17:23;93335.00;;;8.10
41593;BMP180;28026;48.562;14.440;2022-12-07T04:19:54;93328.00;;;8.10
41593;BMP180;28026;48.562;14.440;2022-12-07T04:22:25;93323.00;;;8.10
41593;BMP180;28026;48.562;14.440;2022-12-07T04:24:56;93328.00;;;8.20
41593;BMP180;28026;48.562;14.440;2022-12-07T04:27:27;93330.00;;;8.20
41593;BMP180;28026;48.562;14.440;2022-12-07T04:29:58;93322.00;;;8.20
41593;BMP180;28026;48.562;14.440;2022-12-07T04:32:29;93328.00;;;8.10
41593;BMP180;28026;48.562;14.440;2022-12-07T04:35:00;93325.00;;;8.20
41593;BMP180;28026;48.562;14.440;2022-12-07T04:37:31;93329.00;;;8.20
41593;BMP180;28026;48.562;14.440;2022-12-07T04:40:02;93326.00;;;8.20
41593;BMP180;28026;48.562;14.440;2022-12-07T04:42:33;93326.00;;;8.30
41593;BMP180;28026;48.562;14.440;2022-12-07T04:45:05;93326.00;;;8.30
41593;BMP180;28026;48.562;14.440;2022-12-07T04:47:37;93326.00;;;8.30
41593;BMP180;28026;48.562;14.440;2022-12-07T04:50:09;93312.00;;;8.30
41593;BMP180;28026;48.562;14.440;2022-12-07T04:52:40;93321.00;;;8.30
41593;BMP180;28026;48.562;14.440;2022-12-07T04:55:11;93323.00;;;8.40
41593;BMP180;28026;48.562;14.440;2022-12-07T04:57:42;93317.00;;;8.30
41593;BMP180;28026;48.562;14.440;2022-12-07T05:00:13;93313.00;;;8.30
41593;BMP180;28026;48.562;14.440;2022-12-07T05:02:44;93315.00;;;8.30
41593;BMP180;28026;48.562;14.440;2022-12-07T05:05:15;93316.00;;;8.30
41593;BMP180;28026;48.562;14.440;2022-12-07T05:07:46;93310.00;;;8.30
41593;BMP180;28026;48.562;14.440;2022-12-07T05:10:17;93316.00;;;8.30
41593;BMP180;28026;48.562;14.440;2022-12-07T05:12:48;93304.00;;;8.20
41593;BMP180;28026;48.562;14.440;2022-12-07T05:15:19;93311.00;;;8.30
41593;BMP180;28026;48.562;14.440;2022-12-07T05:17:50;93306.00;;;8.30
41593;BMP180;28026;48.562;14.440;2022-12-07T05:20:22;93312.00;;;8.30
41593;BMP180;28026;48.562;14.440;2022-12-07T05:22:53;93318.00;;;8.30
41593;BMP180;28026;48.562;14.440;2022-12-07T05:25:24;93308.00;;;8.40
41593;BMP180;28026;48.562;14.440;2022-12-07T05:27:56;93317.00;;;8.40
41593;BMP180;28026;48.562;14.440;2022-12-07T05:30:27;93318.00;;;8.30
41593;BMP180;28026;48.562;14.440;2022-12-07T05:32:59;93306.00;;;8.30
41593;BMP180;28026;48.562;14.440;2022-12-07T05:35:33;93318.00;;;8.30
41593;BMP180;28026;48.562;14.440;2022-12-07T05:38:04;93306.00;;;8.20
41593;BMP180;28026;48.562;14.440;2022-12-07T05:40:36;93319.00;;;8.20
41593;BMP180;28026;48.562;14.440;2022-12-07T05:43:07;93325.00;;;8.20
41593;BMP180;28026;48.562;14.440;2022-12-07T05:45:38;93315.00;;;8.20
41593;BMP180;28026;48.562;14.440;2022-12-07T05:48:09;93317.00;;;8.20
41593;BMP180;28026;48.562;14.440;2022-12-07T05:50:40;93309.00;;;8.20
41593;BMP180;28026;48.562;14.440;2022-12-07T05:53:11;93304.00;;;8.10
41593;BMP180;28026;48.562;14.440;2022-12-07T05:55:44;93316.00;;;8.10
41593;BMP180;28026;48.562;14.440;2022-12-07T05:58:15;93309.00;;;8.10
41593;BMP180;28026;48.562;14.440;2022-12-07T06:01:04;93297.00;;;8.10
41593;BMP180;28026;48.562;14.440;2022-12-07T06:03:35;93316.00;;;8.10
41593;BMP180;28026;48.562;14.440;2022-12-07T06:06:06;93306.00;;;8.00
41593;BMP180;28026;48.562;14.440;2022-12-07T06:08:37;93320.00;;;8.00
41593;BMP180;28026;48.562;14.440;2022-12-07T06:11:08;93325.00;;;8.00
41593;BMP180;28026;48.562;14.440;2022-12-07T06:13:58;93326.00;;;7.90
41593;BMP180;28026;48.562;14.440;2022-12-07T06:16:28;93343.00;;;7.90
41593;BMP180;28026;48.562;14.440;2022-12-07T06:18:59;93335.00;;;7.80
41593;BMP180;28026;48.562;14.440;2022-12-07T06:21:30;93323.00;;;7.80
41593;BMP180;28026;48.562;14.440;2022-12-07T06:24:01;93328.00;;;7.70
41593;BMP180;28026;48.562;14.440;2022-12-07T06:26:32;93332.00;;;7.70
41593;BMP180;28026;48.562;14.440;2022-12-07T06:29:03;93323.00;;;7.60
41593;BMP180;28026;48.562;14.440;2022-12-07T06:31:35;93333.00;;;7.60
41593;BMP180;28026;48.562;14.440;2022-12-07T06:34:13;93336.00;;;7.60
41593;BMP180;28026;48.562;14.440;2022-12-07T06:36:50;93339.00;;;7.50
41593;BMP180;28026;48.562;14.440;2022-12-07T06:39:27;93335.00;;;7.50
41593;BMP180;28026;48.562;14.440;2022-12-07T06:41:59;93340.00;;;7.50
41593;BMP180;28026;48.562;14.440;2022-12-07T06:44:30;93341.00;;;7.40
41593;BMP180;28026;48.562;14.440;2022-12-07T06:47:01;93336.00;;;7.50
41593;BMP180;28026;48.562;14.440;2022-12-07T06:49:32;93345.00;;;7.40
41593;BMP180;28026;48.562;14.440;2022-12-07T06:52:04;93341.00;;;7.40
41593;BMP180;28026;48.562;14.440;2022-12-07T06:54:36;93344.00;;;7.50
41593;BMP180;28026;48.562;14.440;2022-12-07T06:57:07;93349.00;;;7.50
41593;BMP180;28026;48.562;14.440;2022-12-07T06:59:37;93354.00;;;7.40
41593;BMP180;28026;48.562;14.440;2022-12-07T07:02:09;93346.00;;;7.40
41593;BMP180;28026;48.562;14.440;2022-12-07T07:04:40;93354.00;;;7.50
41593;BMP180;28026;48.562;14.440;2022-12-07T07:07:11;93348.00;;;7.40
41593;BMP180;28026;48.562;14.440;2022-12-07T07:09:42;93355.00;;;7.50
41593;BMP180;28026;48.562;14.440;2022-12-07T07:12:13;93356.00;;;7.40
41593;BMP180;28026;48.562;14.440;2022-12-07T07:14:44;93359.00;;;7.50
41593;BMP180;28026;48.562;14.440;2022-12-07T07:17:15;93363.00;;;7.50
41593;BMP180;28026;48.562;14.440;2022-12-07T07:19:46;93366.00;;;7.50
41593;BMP180;28026;48.562;14.440;2022-12-07T07:22:16;93374.00;;;7.50
41593;BMP180;28026;48.562;14.440;2022-12-07T07:24:47;93369.00;;;7.50
41593;BMP180;28026;48.562;14.440;2022-12-07T07:27:18;93367.00;;;7.50
41593;BMP180;28026;48.562;14.440;2022-12-07T07:29:49;93357.00;;;7.50
41593;BMP180;28026;48.562;14.440;2022-12-07T07:32:20;93337.00;;;7.50
41593;BMP180;28026;48.562;14.440;2022-12-07T07:34:52;93350.00;;;7.60
41593;BMP180;28026;48.562;14.440;2022-12-07T07:37:23;93347.00;;;7.60
41593;BMP180;28026;48.562;14.440;2022-12-07T07:39:54;93349.00;;;7.70
41593;BMP180;28026;48.562;14.440;2022-12-07T07:42:25;93363.00;;;7.60
41593;BMP180;28026;48.562;14.440;2022-12-07T07:44:56;93351.00;;;7.60
41593;BMP180;28026;48.562;14.440;2022-12-07T07:47:27;93353.00;;;7.60
41593;BMP180;28026;48.562;14.440;2022-12-07T07:49:59;93343.00;;;7.70
41593;BMP180;28026;48.562;14.440;2022-12-07T07:52:31;93363.00;;;7.90
41593;BMP180;28026;48.562;14.440;2022-12-07T07:55:03;93358.00;;;8.00
41593;BMP180;28026;48.562;14.440;2022-12-07T07:57:39;93366.00;;;8.00
41593;BMP180;28026;48.562;14.440;2022-12-07T08:00:13;93363.00;;;7.90
41593;BMP180;28026;48.562;14.440;2022-12-07T08:02:45;93363.00;;;7.90
41593;BMP180;28026;48.562;14.440;2022-12-07T08:05:17;93367.00;;;8.10
41593;BMP180;28026;48.562;14.440;2022-12-07T08:07:48;93382.00;;;8.30
41593;BMP180;28026;48.562;14.440;2022-12-07T08:10:19;93380.00;;;8.40
41593;BMP180;28026;48.562;14.440;2022-12-07T08:12:50;93381.00;;;8.50
41593;BMP180;28026;48.562;14.440;2022-12-07T08:15:45;93387.00;;;8.40
41593;BMP180;28026;48.562;14.440;2022-12-07T08:18:17;93394.00;;;8.30
41593;BMP180;28026;48.562;14.440;2022-12-07T08:20:48;93399.00;;;8.30
41593;BMP180;28026;48.562;14.440;2022-12-07T08:23:19;93397.00;;;8.20
41593;BMP180;28026;48.562;14.440;2022-12-07T08:25:50;93393.00;;;8.20
41593;BMP180;28026;48.562;14.440;2022-12-07T08:28:20;93401.00;;;8.30
41593;BMP180;28026;48.562;14.440;2022-12-07T08:30:51;93385.00;;;8.20
41593;BMP180;28026;48.562;14.440;2022-12-07T08:33:22;93389.00;;;8.00
41593;BMP180;28026;48.562;14.440;2022-12-07T08:35:53;93404.00;;;7.90
41593;BMP180;28026;48.562;14.440;2022-12-07T08:38:24;93417.00;;;8.00
41593;BMP180;28026;48.562;14.440;2022-12-07T08:40:57;93419.00;;;8.00
41593;BMP180;28026;48.562;14.440;2022-12-07T08:43:29;93416.00;;;8.00
41593;BMP180;28026;48.562;14.440;2022-12-07T08:46:21;93413.00;;;8.10
41593;BMP180;28026;48.562;14.440;2022-12-07T08:49:05;93413.00;;;8.20
41593;BMP180;28026;48.562;14.440;2022-12-07T08:51:41;93419.00;;;8.20
41593;BMP180;28026;48.562;14.440;2022-12-07T08:54:17;93411.00;;;8.20
41593;BMP180;28026;48.562;14.440;2022-12-07T08:56:50;93411.00;;;8.20
41593;BMP180;28026;48.562;14.440;2022-12-07T08:59:23;93421.00;;;8.20
41593;BMP180;28026;48.562;14.440;2022-12-07T09:01:54;93425.00;;;8.20
41593;BMP180;28026;48.562;14.440;2022-12-07T09:04:25;93419.00;;;8.20
41593;BMP180;28026;48.562;14.440;2022-12-07T09:06:56;93424.00;;;8.20
41593;BMP180;28026;48.562;14.440;2022-12-07T09:09:28;93426.00;;;8.30
41593;BMP180;28026;48.562;14.440;2022-12-07T09:11:58;93426.00;;;8.40
41593;BMP180;28026;48.562;14.440;2022-12-07T09:14:29;93417.00;;;8.50
41593;BMP180;28026;48.562;14.440;2022-12-07T09:17:12;93420.00;;;8.70
41593;BMP180;28026;48.562;14.440;2022-12-07T09:19:43;93428.00;;;8.90
41593;BMP180;28026;48.562;14.440;2022-12-07T09:22:14;93428.00;;;8.90
41593;BMP180;28026;48.562;14.440;2022-12-07T09:24:45;93423.00;;;8.90
41593;BMP180;28026;48.562;14.440;2022-12-07T09:27:16;93417.00;;;9.00
41593;BMP180;28026;48.562;14.440;2022-12-07T09:29:48;93407.00;;;9.00
41593;BMP180;28026;48.562;14.440;2022-12-07T09:32:19;93403.00;;;8.90
41593;BMP180;28026;48.562;14.440;2022-12-07T09:34:50;93402.00;;;9.10
41593;BMP180;28026;48.562;14.440;2022-12-07T09:37:21;93392.00;;;9.30
41593;BMP180;28026;48.562;14.440;2022-12-07T09:39:52;93404.00;;;9.60
41593;BMP180;28026;48.562;14.440;2022-12-07T09:42:36;93394.00;;;9.90
41593;BMP180;28026;48.562;14.440;2022-12-07T09:45:19;93407.00;;;10.20
41593;BMP180;28026;48.562;14.440;2022-12-07T09:47:51;93407.00;;;10.40
41593;BMP180;28026;48.562;14.440;2022-12-07T09:50:27;93396.00;;;10.50
41593;BMP180;28026;48.562;14.440;2022-12-07T09:53:15;93385.00;;;10.70
41593;BMP180;28026;48.562;14.440;2022-12-07T09:55:54;93387.00;;;10.90
41593;BMP180;28026;48.562;14.440;2022-12-07T09:58:28;93380.00;;;11.00
41593;BMP180;28026;48.562;14.440;2022-12-07T10:03:54;93383.00;;;11.10
41593;BMP180;28026;48.562;14.440;2022-12-07T10:06:29;93382.00;;;11.30
41593;BMP180;28026;48.562;14.440;2022-12-07T10:09:00;93370.00;;;11.40
41593;BMP180;28026;48.562;14.440;2022-12-07T10:11:32;93370.00;;;11.60
41593;BMP180;28026;48.562;14.440;2022-12-07T10:14:13;93372.00;;;11.60
41593;BMP180;28026;48.562;14.440;2022-12-07T10:16:44;93378.00;;;11.50
41593;BMP180;28026;48.562;14.440;2022-12-07T10:19:32;93386.00;;;11.40
41593;BMP180;28026;48.562;14.440;2022-12-07T10:22:12;93379.00;;;11.30
41593;BMP180;28026;48.562;14.440;2022-12-07T10:24:47;93375.00;;;11.30
41593;BMP180;28026;48.562;14.440;2022-12-07T10:27:31;93371.00;;;11.50
41593;BMP180;28026;48.562;14.440;2022-12-07T10:30:12;93350.00;;;11.50
41593;BMP180;28026;48.562;14.440;2022-12-07T10:32:45;93353.00;;;11.60
41593;BMP180;28026;48.562;14.440;2022-12-07T10:35:23;93347.00;;;11.70
41593;BMP180;28026;48.562;14.440;2022-12-07T10:38:00;93358.00;;;11.60
41593;BMP180;28026;48.562;14.440;2022-12-07T10:40:35;93356.00;;;11.60
41593;BMP180;28026;48.562;14.440;2022-12-07T10:46:16;93367.00;;;11.60
41593;BMP180;28026;48.562;14.440;2022-12-07T11:05:45;93363.00;;;11.60
41593;BMP180;28026;48.562;14.440;2022-12-07T11:08:39;93367.00;;;11.50
41593;BMP180;28026;48.562;14.440;2022-12-07T11:14:35;93366.00;;;11.40
41593;BMP180;28026;48.562;14.440;2022-12-07T11:17:56;93359.00;;;11.40
41593;BMP180;28026;48.562;14.440;2022-12-07T11:21:13;93355.00;;;11.40
41593;BMP180;28026;48.562;14.440;2022-12-07T11:24:14;93354.00;;;11.20
41593;BMP180;28026;48.562;14.440;2022-12-07T11:34:00;93339.00;;;11.10
41593;BMP180;28026;48.562;14.440;2022-12-07T11:36:46;93333.00;;;11.20
41593;BMP180;28026;48.562;14.440;2022-12-07T11:39:35;93336.00;;;11.20
41593;BMP180;28026;48.562;14.440;2022-12-07T11:42:24;93330.00;;;11.10
41593;BMP180;28026;48.562;14.440;2022-12-07T11:45:14;93339.00;;;11.30
41593;BMP180;28026;48.562;14.440;2022-12-07T11:48:00;93338.00;;;11.40
41593;BMP180;28026;48.562;14.440;2022-12-07T11:50:46;93344.00;;;11.20
41593;BMP180;28026;48.562;14.440;2022-12-07T11:53:32;93353.00;;;10.90
41593;BMP180;28026;48.562;14.440;2022-12-07T12:06:44;93343.00;;;10.00
41593;BMP180;28026;48.562;14.440;2022-12-07T12:09:29;93343.00;;;9.80
41593;BMP180;28026;48.562;14.440;2022-12-07T12:16:01;93339.00;;;9.70
41593;BMP180;28026;48.562;14.440;2022-12-07T12:18:58;93337.00;;;9.70
41593;BMP180;28026;48.562;14.440;2022-12-07T12:21:34;93334.00;;;9.70
41593;BMP180;28026;48.562;14.440;2022-12-07T12:24:18;93335.00;;;9.60
41593;BMP180;28026;48.562;14.440;2022-12-07T12:27:09;93324.00;;;9.60
41593;BMP180;28026;48.562;14.440;2022-12-07T12:29:55;93328.00;;;9.50
41593;BMP180;28026;48.562;14.440;2022-12-07T12:32:42;93325.00;;;9.50
41593;BMP180;28026;48.562;14.440;2022-12-07T12:35:36;93340.00;;;9.60
41593;BMP180;28026;48.562;14.440;2022-12-07T12:47:37;93324.00;;;9.60
41593;BMP180;28026;48.562;14.440;2022-12-07T12:50:44;93336.00;;;9.60
41593;BMP180;28026;48.562;14.440;2022-12-07T12:53:26;93333.00;;;9.50
41593;BMP180;28026;48.562;14.440;2022-12-07T12:56:33;93333.00;;;9.50
41593;BMP180;28026;48.562;14.440;2022-12-07T12:59:29;93323.00;;;9.50
41593;BMP180;28026;48.562;14.440;2022-12-07T13:07:57;93325.00;;;9.60
41593;BMP180;28026;48.562;14.440;2022-12-07T13:10:39;93329.00;;;9.60
41593;BMP180;28026;48.562;14.440;2022-12-07T13:18:39;93320.00;;;9.70
41593;BMP180;28026;48.562;14.440;2022-12-07T13:26:23;93323.00;;;9.60
41593;BMP180;28026;48.562;14.440;2022-12-07T13:29:19;93329.00;;;9.50
41593;BMP180;28026;48.562;14.440;2022-12-07T13:31:56;93331.00;;;9.50
41593;BMP180;28026;48.562;14.440;2022-12-07T13:34:40;93329.00;;;9.60
41593;BMP180;28026;48.562;14.440;2022-12-07T13:40:14;93333.00;;;9.70
41593;BMP180;28026;48.562;14.440;2022-12-07T13:42:59;93340.00;;;9.60
41593;BMP180;28026;48.562;14.440;2022-12-07T13:45:33;93327.00;;;9.50
41593;BMP180;28026;48.562;14.440;2022-12-07T13:48:35;93336.00;;;9.40
41593;BMP180;28026;48.562;14.440;2022-12-07T13:51:28;93326.00;;;9.30
41593;BMP180;28026;48.562;14.440;2022-12-07T13:54:12;93326.00;;;9.30
41593;BMP180;28026;48.562;14.440;2022-12-07T13:56:47;93325.00;;;9.20
41593;BMP180;28026;48.562;14.440;2022-12-07T13:59:24;93332.00;;;9.20
41593;BMP180;28026;48.562;14.440;2022-12-07T14:01:57;93325.00;;;9.20
41593;BMP180;28026;48.562;14.440;2022-12-07T14:04:35;93324.00;;;9.10
41593;BMP180;28026;48.562;14.440;2022-12-07T14:07:49;93328.00;;;9.00
41593;BMP180;28026;48.562;14.440;2022-12-07T14:10:52;93331.00;;;8.90
41593;BMP180;28026;48.562;14.440;2022-12-07T14:13:40;93326.00;;;8.80
41593;BMP180;28026;48.562;14.440;2022-12-07T14:16:36;93333.00;;;8.80
41593;BMP180;28026;48.562;14.440;2022-12-07T14:19:53;93332.00;;;8.80
41593;BMP180;28026;48.562;14.440;2022-12-07T14:22:35;93334.00;;;8.70
41593;BMP180;28026;48.562;14.440;2022-12-07T14:25:22;93336.00;;;8.70
41593;BMP180;28026;48.562;14.440;2022-12-07T14:28:00;93332.00;;;8.70
41593;BMP180;28026;48.562;14.440;2022-12-07T14:30:34;93334.00;;;8.70
41593;BMP180;28026;48.562;14.440;2022-12-07T14:33:07;93327.00;;;8.70
41593;BMP180;28026;48.562;14.440;2022-12-07T14:35:39;93328.00;;;8.70
41593;BMP180;28026;48.562;14.440;2022-12-07T14:38:10;93330.00;;;8.70
41593;BMP180;28026;48.562;14.440;2022-12-07T14:40:42;93317.00;;;8.60
41593;BMP180;28026;48.562;14.440;2022-12-07T14:43:17;93327.00;;;8.40
41593;BMP180;28026;48.562;14.440;2022-12-07T14:45:49;93325.00;;;8.30
41593;BMP180;28026;48.562;14.440;2022-12-07T14:48:20;93309.00;;;8.30
41593;BMP180;28026;48.562;14.440;2022-12-07T14:50:52;93303.00;;;8.20
41593;BMP180;28026;48.562;14.440;2022-12-07T14:53:33;93301.00;;;8.00
41593;BMP180;28026;48.562;14.440;2022-12-07T14:56:07;93311.00;;;7.90
41593;BMP180;28026;48.562;14.440;2022-12-07T14:58:40;93319.00;;;7.80
41593;BMP180;28026;48.562;14.440;2022-12-07T15:01:10;93311.00;;;7.60
41593;BMP180;28026;48.562;14.440;2022-12-07T15:03:41;93311.00;;;7.50
41593;BMP180;28026;48.562;14.440;2022-12-07T15:06:17;93315.00;;;7.50
41593;BMP180;28026;48.562;14.440;2022-12-07T15:08:49;93310.00;;;7.60
41593;BMP180;28026;48.562;14.440;2022-12-07T15:11:19;93312.00;;;7.80
41593;BMP180;28026;48.562;14.440;2022-12-07T15:13:51;93309.00;;;7.80
41593;BMP180;28026;48.562;14.440;2022-12-07T15:16:43;93311.00;;;7.90
41593;BMP180;28026;48.562;14.440;2022-12-07T15:19:20;93315.00;;;8.00
41593;BMP180;28026;48.562;14.440;2022-12-07T15:21:54;93316.00;;;8.10
41593;BMP180;28026;48.562;14.440;2022-12-07T15:24:27;93319.00;;;8.20
41593;BMP180;28026;48.562;14.440;2022-12-07T15:26:58;93313.00;;;8.30
41593;BMP180;28026;48.562;14.440;2022-12-07T15:29:29;93314.00;;;8.30
41593;BMP180;28026;48.562;14.440;2022-12-07T15:32:00;93309.00;;;8.40
41593;BMP180;28026;48.562;14.440;2022-12-07T15:34:31;93315.00;;;8.40
41593;BMP180;28026;48.562;14.440;2022-12-07T15:37:02;93320.00;;;8.50
41593;BMP180;28026;48.562;14.440;2022-12-07T15:39:33;93318.00;;;8.50
41593;BMP180;28026;48.562;14.440;2022-12-07T15:42:04;93315.00;;;8.50
41593;BMP180;28026;48.562;14.440;2022-12-07T15:44:35;93305.00;;;8.50
41593;BMP180;28026;48.562;14.440;2022-12-07T15:47:24;93310.00;;;8.50
41593;BMP180;28026;48.562;14.440;2022-12-07T15:49:55;93310.00;;;8.50
41593;BMP180;28026;48.562;14.440;2022-12-07T15:52:26;93303.00;;;8.60
41593;BMP180;28026;48.562;14.440;2022-12-07T15:54:57;93300.00;;;8.60
41593;BMP180;28026;48.562;14.440;2022-12-07T15:57:32;93307.00;;;8.60
41593;BMP180;28026;48.562;14.440;2022-12-07T16:00:10;93312.00;;;8.60
41593;BMP180;28026;48.562;14.440;2022-12-07T16:02:41;93311.00;;;8.60
41593;BMP180;28026;48.562;14.440;2022-12-07T16:05:12;93309.00;;;8.60
41593;BMP180;28026;48.562;14.440;2022-12-07T16:07:43;93311.00;;;8.50
41593;BMP180;28026;48.562;14.440;2022-12-07T16:10:16;93298.00;;;8.40
41593;BMP180;28026;48.562;14.440;2022-12-07T16:12:47;93311.00;;;8.30
41593;BMP180;28026;48.562;14.440;2022-12-07T16:15:18;93301.00;;;8.20
41593;BMP180;28026;48.562;14.440;2022-12-07T16:17:49;93302.00;;;8.20
41593;BMP180;28026;48.562;14.440;2022-12-07T16:20:21;93303.00;;;8.20
41593;BMP180;28026;48.562;14.440;2022-12-07T16:22:52;93297.00;;;8.20
41593;BMP180;28026;48.562;14.440;2022-12-07T16:25:23;93296.00;;;8.10
41593;BMP180;28026;48.562;14.440;2022-12-07T16:27:54;93297.00;;;8.10
41593;BMP180;28026;48.562;14.440;2022-12-07T16:30:25;93306.00;;;8.10
41593;BMP180;28026;48.562;14.440;2022-12-07T16:32:56;93298.00;;;8.10
41593;BMP180;28026;48.562;14.440;2022-12-07T16:35:27;93294.00;;;8.10
41593;BMP180;28026;48.562;14.440;2022-12-07T16:37:58;93300.00;;;8.10
41593;BMP180;28026;48.562;14.440;2022-12-07T16:40:29;93294.00;;;8.10
41593;BMP180;28026;48.562;14.440;2022-12-07T16:43:00;93294.00;;;8.20
41593;BMP180;28026;48.562;14.440;2022-12-07T16:45:30;93298.00;;;8.20